Terminal Aerodrome Forecast
Issued by NWS

Home | Current Version | Previous Version | Text Only | Print | Product List | Glossary On
Versions: 1 2 3 4 5 6 7 8 9 10 11 12
000
FTUS44 KLIX 291122
TAFGPT
TAF
KGPT 291122Z 2912/3012 30005KT P6SM SCT035 SCT120 BKN250
     FM291700 22006KT P6SM SCT040 SCT100 BKN250
      TEMPO 2918/2922 2SM TSRA BKN030CB
     FM300100 VRB04KT P6SM SCT050 BKN250=

USA.gov is the U.S. government's official web portal to all federal, state and local government web resources and services.